createdAt,value
2023-02-24T00:01:18.379Z,-8.74
2023-02-24T00:03:49.722Z,-8.82
2023-02-24T00:06:24.156Z,-8.74
2023-02-24T00:08:54.884Z,-8.73
2023-02-24T00:11:29.222Z,-8.73
2023-02-24T00:13:59.511Z,-8.84
2023-02-24T00:16:28.941Z,-8.80
2023-02-24T00:19:00.823Z,-8.76
2023-02-24T00:21:30.692Z,-8.67
2023-02-24T00:24:01.129Z,-8.66
2023-02-24T00:26:31.420Z,-8.71
2023-02-24T00:29:03.456Z,-8.86
2023-02-24T00:31:39.058Z,-8.80
2023-02-24T00:34:20.750Z,-8.79
2023-02-24T00:36:51.090Z,-8.80
2023-02-24T00:39:28.186Z,-8.71
2023-02-24T00:42:04.026Z,-8.90
2023-02-24T00:44:34.760Z,-8.76
2023-02-24T00:47:04.480Z,-8.71
2023-02-24T00:49:48.434Z,-8.72
2023-02-24T00:52:19.586Z,-8.71
2023-02-24T00:54:50.255Z,-8.85
2023-02-24T00:57:20.855Z,-8.73
2023-02-24T00:59:51.207Z,-8.75
2023-02-24T01:02:26.276Z,-8.78
2023-02-24T01:04:57.664Z,-8.77
2023-02-24T01:07:29.062Z,-8.74
2023-02-24T01:10:05.062Z,-8.73
2023-02-24T01:12:55.661Z,-8.69
2023-02-24T01:15:30.245Z,-8.72
2023-02-24T01:17:59.443Z,-8.74
2023-02-24T01:20:32.964Z,-8.74
2023-02-24T01:23:02.966Z,-8.64
2023-02-24T01:25:32.551Z,-8.61
2023-02-24T01:28:02.774Z,-8.59
2023-02-24T01:30:31.849Z,-8.61
2023-02-24T01:33:01.257Z,-8.59
2023-02-24T01:35:34.647Z,-8.52
2023-02-24T01:38:10.808Z,-8.50
2023-02-24T01:40:40.079Z,-8.46
2023-02-24T01:43:10.045Z,-8.40
2023-02-24T01:45:39.742Z,-8.52
2023-02-24T01:48:11.829Z,-8.45
2023-02-24T01:50:44.692Z,-8.48
2023-02-24T01:53:14.841Z,-8.40
2023-02-24T01:55:48.718Z,-8.40
2023-02-24T01:58:31.836Z,-8.44
2023-02-24T02:01:08.178Z,-8.46
2023-02-24T02:03:41.224Z,-8.47
2023-02-24T02:06:17.338Z,-8.53
2023-02-24T02:08:48.092Z,-8.57
2023-02-24T02:11:22.517Z,-8.66
2023-02-24T02:13:56.520Z,-8.63
2023-02-24T02:17:02.222Z,-8.69
2023-02-24T02:20:01.560Z,-8.82
2023-02-24T02:23:03.999Z,-8.93
2023-02-24T02:25:49.993Z,-8.99
2023-02-24T02:28:45.034Z,-9.08
2023-02-24T02:31:46.148Z,-9.27
2023-02-24T02:34:37.159Z,-9.17
2023-02-24T02:37:15.708Z,-9.25
2023-02-24T02:39:52.387Z,-9.29
2023-02-24T02:42:30.137Z,-9.37
2023-02-24T02:45:07.576Z,-9.35
2023-02-24T02:47:42.963Z,-9.37
2023-02-24T02:50:19.617Z,-9.41
2023-02-24T02:52:55.773Z,-9.42
2023-02-24T02:55:35.849Z,-9.40
2023-02-24T02:58:16.463Z,-9.38
2023-02-24T03:00:58.448Z,-9.27
2023-02-24T03:03:29.374Z,-9.43
2023-02-24T03:06:05.801Z,-9.13
2023-02-24T03:11:20.027Z,-9.09
2023-02-24T03:13:58.156Z,-9.23
2023-02-24T03:16:29.920Z,-9.06
2023-02-24T03:19:04.940Z,-9.10
2023-02-24T03:21:40.942Z,-9.23
2023-02-24T03:24:11.485Z,-9.15
2023-02-24T03:26:48.855Z,-9.17
2023-02-24T03:29:24.868Z,-9.29
2023-02-24T03:32:05.234Z,-9.32
2023-02-24T03:34:44.801Z,-9.33
2023-02-24T03:37:16.980Z,-9.36
2023-02-24T03:39:50.532Z,-9.50
2023-02-24T03:42:25.274Z,-9.35
2023-02-24T03:44:57.807Z,-9.32
2023-02-24T03:47:28.587Z,-9.31
2023-02-24T03:49:57.846Z,-9.30
2023-02-24T03:52:37.943Z,-9.23
2023-02-24T03:55:19.188Z,-9.17
2023-02-24T03:57:59.617Z,-9.22
2023-02-24T04:00:48.388Z,-9.10
2023-02-24T04:03:25.505Z,-9.10
2023-02-24T04:06:13.803Z,-9.20
2023-02-24T04:08:52.377Z,-9.17
2023-02-24T04:14:08.581Z,-9.30
2023-02-24T04:16:44.491Z,-9.29
2023-02-24T04:19:24.508Z,-9.26
2023-02-24T04:21:54.570Z,-9.20
2023-02-24T04:24:34.033Z,-9.15
2023-02-24T04:27:06.138Z,-9.11
2023-02-24T04:29:50.675Z,-9.07
2023-02-24T04:32:29.628Z,-8.98
2023-02-24T04:35:05.689Z,-8.92
2023-02-24T04:37:39.316Z,-8.92
2023-02-24T04:40:12.398Z,-8.81
2023-02-24T04:42:46.121Z,-8.82
2023-02-24T04:45:16.674Z,-8.82
2023-02-24T04:47:50.832Z,-8.93
2023-02-24T04:50:24.874Z,-8.83
2023-02-24T04:52:55.163Z,-8.84
2023-02-24T04:55:29.106Z,-8.81
2023-02-24T04:57:58.993Z,-8.76
2023-02-24T05:00:33.319Z,-8.72
2023-02-24T05:03:12.506Z,-8.69
2023-02-24T05:05:42.496Z,-8.62
2023-02-24T05:08:20.426Z,-8.61
2023-02-24T05:10:52.499Z,-8.55
2023-02-24T05:13:31.796Z,-8.71
2023-02-24T05:16:09.469Z,-8.43
2023-02-24T05:18:44.461Z,-8.37
2023-02-24T05:21:28.571Z,-8.43
2023-02-24T05:23:59.365Z,-8.30
2023-02-24T05:26:31.726Z,-8.22
2023-02-24T05:31:44.147Z,-8.01
2023-02-24T05:34:18.646Z,-7.88
2023-02-24T05:36:48.784Z,-7.81
2023-02-24T05:39:28.831Z,-7.76
2023-02-24T05:42:05.736Z,-7.64
2023-02-24T05:44:35.326Z,-7.71
2023-02-24T05:47:05.659Z,-7.62
2023-02-24T05:49:48.406Z,-7.55
2023-02-24T05:52:17.821Z,-7.40
2023-02-24T05:54:49.191Z,-7.36
2023-02-24T05:57:32.540Z,-7.35
2023-02-24T06:00:16.087Z,-7.40
2023-02-24T06:02:49.187Z,-7.46
2023-02-24T06:05:27.667Z,-7.43
2023-02-24T06:08:12.340Z,-7.35
2023-02-24T06:10:42.500Z,-7.34
2023-02-24T06:13:13.495Z,-7.26
2023-02-24T06:15:49.898Z,-7.25
2023-02-24T06:18:21.059Z,-7.17
2023-02-24T06:20:50.772Z,-7.20
2023-02-24T06:26:04.174Z,-6.98
2023-02-24T06:28:35.396Z,-6.99
2023-02-24T06:31:07.525Z,-6.91
2023-02-24T06:33:37.070Z,-6.96
2023-02-24T06:36:07.354Z,-6.91
2023-02-24T06:38:42.434Z,-6.99
2023-02-24T06:41:14.690Z,-7.04
2023-02-24T06:43:55.943Z,-7.02
2023-02-24T06:46:25.295Z,-7.16
2023-02-24T06:48:54.600Z,-7.31
2023-02-24T06:51:34.837Z,-7.05
2023-02-24T06:54:05.760Z,-7.08
2023-02-24T06:56:38.508Z,-7.01
2023-02-24T06:59:12.637Z,-6.98
2023-02-24T07:01:44.826Z,-6.90
2023-02-24T07:04:20.808Z,-6.82
2023-02-24T07:07:07.577Z,-6.75
2023-02-24T07:09:37.175Z,-6.93
2023-02-24T07:12:12.883Z,-7.25
2023-02-24T07:14:46.576Z,-6.93
2023-02-24T07:17:28.041Z,-6.81
2023-02-24T07:19:57.204Z,-6.75
2023-02-24T07:22:26.422Z,-6.91
2023-02-24T07:25:01.197Z,-6.79
2023-02-24T07:27:30.414Z,-6.76
2023-02-24T07:30:05.873Z,-6.91
2023-02-24T07:32:37.903Z,-6.74
2023-02-24T07:35:08.167Z,-6.70
2023-02-24T07:37:37.444Z,-6.76
2023-02-24T07:40:09.565Z,-6.46
2023-02-24T07:42:38.844Z,-6.45
2023-02-24T07:45:12.992Z,-6.41
2023-02-24T07:47:42.850Z,-6.59
2023-02-24T07:50:23.098Z,-6.42
2023-02-24T07:52:52.627Z,-6.26
2023-02-24T07:55:23.346Z,-6.24
2023-02-24T07:57:59.374Z,-6.23
2023-02-24T08:00:49.846Z,-6.18
2023-02-24T08:03:19.036Z,-6.26
2023-02-24T08:05:48.314Z,-6.20
2023-02-24T08:08:25.553Z,-6.20
2023-02-24T08:11:03.616Z,-6.10
2023-02-24T08:13:37.006Z,-6.10
2023-02-24T08:16:09.941Z,-6.00
2023-02-24T08:18:40.188Z,-6.09
2023-02-24T08:21:09.334Z,-6.12
2023-02-24T08:23:44.208Z,-6.08
2023-02-24T08:26:13.467Z,-5.97
2023-02-24T08:28:58.547Z,-5.88
2023-02-24T08:31:29.856Z,-5.80
2023-02-24T08:33:59.149Z,-5.75
2023-02-24T08:36:30.410Z,-5.71
2023-02-24T08:38:59.917Z,-5.78
2023-02-24T08:41:44.447Z,-5.56
2023-02-24T08:46:56.389Z,-5.63
2023-02-24T08:49:27.888Z,-5.53
2023-02-24T08:52:01.943Z,-5.63
2023-02-24T08:54:31.654Z,-5.68
2023-02-24T08:57:12.735Z,-5.54
2023-02-24T08:59:49.365Z,-5.51
2023-02-24T09:02:27.032Z,-5.59
2023-02-24T09:04:58.313Z,-5.51
2023-02-24T09:07:35.227Z,-5.37
2023-02-24T09:10:05.850Z,-5.39
2023-02-24T09:12:40.700Z,-5.16
2023-02-24T09:15:14.948Z,-5.04
2023-02-24T09:18:06.761Z,-5.13
2023-02-24T09:20:53.994Z,-4.95
2023-02-24T09:23:29.533Z,-4.73
2023-02-24T09:26:10.609Z,-4.84
2023-02-24T09:31:40.048Z,-4.71
2023-02-24T09:37:03.554Z,-4.69
2023-02-24T09:39:56.271Z,-4.71
2023-02-24T09:42:45.895Z,-4.69
2023-02-24T09:45:33.066Z,-4.59
2023-02-24T09:48:10.137Z,-4.49
2023-02-24T09:51:03.799Z,-4.43
2023-02-24T09:53:52.239Z,-4.50
2023-02-24T09:56:32.311Z,-4.50
2023-02-24T09:59:13.623Z,-4.46
2023-02-24T10:01:49.171Z,-4.40
2023-02-24T10:04:48.623Z,-4.30
2023-02-24T10:07:26.212Z,-4.25
2023-02-24T10:10:19.001Z,-4.27
2023-02-24T10:12:58.057Z,-4.06
2023-02-24T10:15:58.759Z,-4.07
2023-02-24T10:18:37.561Z,-4.01
2023-02-24T10:21:18.958Z,-3.98
2023-02-24T10:24:07.817Z,-3.78
2023-02-24T10:27:00.059Z,-3.95
2023-02-24T10:29:55.496Z,-3.64
2023-02-24T10:32:33.432Z,-3.76
2023-02-24T10:35:05.854Z,-3.87
2023-02-24T10:37:35.136Z,-3.63
2023-02-24T10:40:17.584Z,-3.59
2023-02-24T10:42:48.439Z,-3.62
2023-02-24T10:45:24.347Z,-3.60
2023-02-24T10:47:58.414Z,-3.69
2023-02-24T10:50:32.593Z,-3.55
2023-02-24T10:53:26.006Z,-3.56
2023-02-24T10:56:29.219Z,-3.45
2023-02-24T10:59:18.024Z,-3.53
2023-02-24T11:01:59.625Z,-3.44
2023-02-24T11:04:53.881Z,-3.48
2023-02-24T11:07:43.327Z,-3.36
2023-02-24T11:10:25.632Z,-3.33
2023-02-24T11:13:11.784Z,-3.44
2023-02-24T11:15:58.868Z,-3.43
2023-02-24T11:18:30.812Z,-3.51
2023-02-24T11:21:01.303Z,-3.38
2023-02-24T11:23:37.927Z,-3.49
2023-02-24T11:26:18.470Z,-3.57
2023-02-24T11:29:06.242Z,-3.51
2023-02-24T11:31:48.630Z,-3.57
2023-02-24T11:34:33.135Z,-3.62
2023-02-24T11:37:16.344Z,-3.62
2023-02-24T11:40:00.264Z,-3.66
2023-02-24T11:42:34.740Z,-3.61
2023-02-24T11:45:14.712Z,-3.55
2023-02-24T11:47:49.790Z,-3.49
2023-02-24T11:50:31.806Z,-3.61
2023-02-24T11:53:06.550Z,-3.62
2023-02-24T11:55:39.464Z,-3.70
2023-02-24T11:58:16.641Z,-3.60
2023-02-24T12:01:00.678Z,-3.55
2023-02-24T12:03:39.305Z,-3.42
2023-02-24T12:06:24.061Z,-3.35
2023-02-24T12:08:59.037Z,-3.37
2023-02-24T12:11:44.231Z,-3.42
2023-02-24T12:14:25.471Z,-3.52
2023-02-24T12:17:17.601Z,-3.76
2023-02-24T12:19:59.679Z,-3.82
2023-02-24T12:22:34.379Z,-3.82
2023-02-24T12:25:04.640Z,-3.83
2023-02-24T12:27:44.400Z,-3.91
2023-02-24T12:30:39.154Z,-3.99
2023-02-24T12:33:24.595Z,-3.90
2023-02-24T12:36:07.174Z,-3.92
2023-02-24T12:38:51.634Z,-3.96
2023-02-24T12:41:37.424Z,-4.01
2023-02-24T12:44:21.187Z,-3.86
2023-02-24T12:53:24.665Z,-4.11
2023-02-24T12:56:05.827Z,-4.19
2023-02-24T12:58:38.957Z,-4.16
2023-02-24T13:01:19.143Z,-4.35
2023-02-24T13:04:02.458Z,-4.35
2023-02-24T13:06:47.040Z,-4.17
2023-02-24T13:09:28.226Z,-4.21
2023-02-24T13:12:02.587Z,-4.11
2023-02-24T13:14:34.835Z,-4.05
2023-02-24T13:17:19.606Z,-4.07
2023-02-24T13:19:57.350Z,-4.10
2023-02-24T13:22:30.986Z,-4.09
2023-02-24T13:25:21.142Z,-4.04
2023-02-24T13:27:59.543Z,-4.02
2023-02-24T13:30:42.303Z,-4.00
2023-02-24T13:33:26.435Z,-4.02
2023-02-24T13:36:20.104Z,-4.00
2023-02-24T13:38:51.467Z,-4.09
2023-02-24T13:41:44.868Z,-4.12
2023-02-24T13:44:27.129Z,-4.23
2023-02-24T13:47:23.363Z,-4.15
2023-02-24T13:50:03.437Z,-4.21
2023-02-24T13:52:46.548Z,-4.14
2023-02-24T13:55:32.927Z,-4.25
2023-02-24T13:58:38.737Z,-4.25
2023-02-24T14:01:10.515Z,-4.08
2023-02-24T14:03:43.216Z,-4.75
2023-02-24T14:06:22.697Z,-4.37
2023-02-24T14:08:55.899Z,-4.08
2023-02-24T14:11:28.068Z,-4.08
2023-02-24T14:14:07.097Z,-4.80
2023-02-24T14:16:40.233Z,-4.67
2023-02-24T14:19:16.695Z,-4.27
2023-02-24T14:21:53.048Z,-4.34
2023-02-24T14:24:28.770Z,-4.08
2023-02-24T14:27:00.428Z,-4.04
2023-02-24T14:32:21.866Z,-4.07
2023-02-24T14:34:51.615Z,-4.08
2023-02-24T14:37:25.563Z,-4.09
2023-02-24T14:39:59.221Z,-4.13
2023-02-24T14:42:29.918Z,-4.07
2023-02-24T14:45:01.547Z,-4.07
2023-02-24T14:47:33.047Z,-4.08
2023-02-24T14:50:09.213Z,-4.26
2023-02-24T14:52:43.146Z,-4.21
2023-02-24T14:55:21.769Z,-4.29
2023-02-24T14:57:58.376Z,-4.15
2023-02-24T15:00:33.611Z,-4.15
2023-02-24T15:03:09.415Z,-4.15
2023-02-24T15:05:44.168Z,-4.11
2023-02-24T15:08:35.937Z,-4.08
2023-02-24T15:11:13.467Z,-4.24
2023-02-24T15:13:46.453Z,-4.22
2023-02-24T15:16:24.036Z,-4.23
2023-02-24T15:18:55.077Z,-4.29
2023-02-24T15:21:29.648Z,-4.40
2023-02-24T15:24:03.286Z,-4.40
2023-02-24T15:26:43.978Z,-4.38
2023-02-24T15:29:16.906Z,-4.57
2023-02-24T15:31:51.640Z,-4.43
2023-02-24T15:34:24.249Z,-4.53
2023-02-24T15:36:58.695Z,-4.47
2023-02-24T15:39:30.887Z,-4.52
2023-02-24T15:42:10.326Z,-4.54
2023-02-24T15:44:39.954Z,-4.56
2023-02-24T15:47:24.258Z,-4.61
2023-02-24T15:49:53.500Z,-4.57
2023-02-24T15:52:25.468Z,-4.53
2023-02-24T15:54:56.216Z,-4.51
2023-02-24T15:57:34.131Z,-4.47
2023-02-24T16:00:12.648Z,-4.43
2023-02-24T16:02:49.059Z,-4.61
2023-02-24T16:05:18.736Z,-4.47
2023-02-24T16:07:49.569Z,-4.46
2023-02-24T16:10:21.248Z,-4.48
2023-02-24T16:12:53.672Z,-4.48
2023-02-24T16:15:27.339Z,-4.47
2023-02-24T16:17:59.376Z,-4.44
2023-02-24T16:20:31.073Z,-4.47
2023-02-24T16:23:02.107Z,-4.51
2023-02-24T16:25:36.489Z,-4.44
2023-02-24T16:28:11.169Z,-4.42
2023-02-24T16:30:41.230Z,-4.40
2023-02-24T16:33:15.658Z,-4.42
2023-02-24T16:35:46.597Z,-4.39
2023-02-24T16:38:28.640Z,-4.41
2023-02-24T16:41:01.765Z,-4.39
2023-02-24T16:43:37.375Z,-4.54
2023-02-24T16:46:08.514Z,-4.36
2023-02-24T16:48:47.798Z,-4.34
2023-02-24T16:51:17.537Z,-4.30
2023-02-24T16:53:47.061Z,-4.41
2023-02-24T16:56:16.582Z,-4.30
2023-02-24T16:58:45.637Z,-4.34
2023-02-24T17:01:22.093Z,-4.30
2023-02-24T17:03:55.606Z,-4.29
2023-02-24T17:06:25.771Z,-4.47
2023-02-24T17:09:01.568Z,-4.27
2023-02-24T17:14:07.239Z,-4.21
2023-02-24T17:16:39.058Z,-4.22
2023-02-24T17:21:47.402Z,-4.16
2023-02-24T17:24:18.272Z,-4.20
2023-02-24T17:26:58.293Z,-4.17
2023-02-24T17:29:27.949Z,-4.21
2023-02-24T17:31:57.251Z,-4.18
2023-02-24T17:34:35.463Z,-4.22
2023-02-24T17:37:04.803Z,-4.22
2023-02-24T17:39:33.989Z,-4.23
2023-02-24T17:42:03.533Z,-4.18
2023-02-24T17:44:33.229Z,-4.20
2023-02-24T17:47:02.499Z,-4.20
2023-02-24T17:49:31.975Z,-4.19
2023-02-24T17:52:05.886Z,-4.21
2023-02-24T17:54:35.816Z,-4.26
2023-02-24T17:57:05.149Z,-4.18
2023-02-24T17:59:34.658Z,-4.18
2023-02-24T18:02:04.111Z,-4.15
2023-02-24T18:04:33.433Z,-4.20
2023-02-24T18:07:04.675Z,-4.13
2023-02-24T18:09:34.002Z,-4.12
2023-02-24T18:12:03.189Z,-4.08
2023-02-24T18:14:33.247Z,-4.16
2023-02-24T18:17:02.406Z,-4.16
2023-02-24T18:19:41.761Z,-4.05
2023-02-24T18:22:13.350Z,-4.06
2023-02-24T18:24:42.705Z,-4.06
2023-02-24T18:27:11.875Z,-4.04
2023-02-24T18:29:41.291Z,-4.07
2023-02-24T18:32:10.803Z,-4.04
2023-02-24T18:34:40.191Z,-4.04
2023-02-24T18:37:09.346Z,-4.04
2023-02-24T18:39:45.467Z,-4.11
2023-02-24T18:42:19.883Z,-4.08
2023-02-24T18:44:49.218Z,-4.07
2023-02-24T18:47:18.825Z,-4.12
2023-02-24T18:49:48.058Z,-4.11
2023-02-24T18:52:22.435Z,-4.04
2023-02-24T18:54:54.928Z,-4.00
2023-02-24T18:57:24.869Z,-3.97
2023-02-24T18:59:54.054Z,-4.08
2023-02-24T19:02:23.344Z,-3.96
2023-02-24T19:04:52.944Z,-3.92
2023-02-24T19:07:22.180Z,-3.87
2023-02-24T19:09:53.627Z,-3.88
2023-02-24T19:12:27.973Z,-3.88
2023-02-24T19:14:57.241Z,-4.02
2023-02-24T19:17:26.628Z,-3.84
2023-02-24T19:19:55.863Z,-3.77
2023-02-24T19:22:32.350Z,-3.82
2023-02-24T19:25:03.434Z,-3.78
2023-02-24T19:27:32.879Z,-3.79
2023-02-24T19:30:04.352Z,-3.79
2023-02-24T19:32:38.729Z,-3.77
2023-02-24T19:35:09.258Z,-3.74
2023-02-24T19:37:38.497Z,-3.74
2023-02-24T19:40:10.830Z,-3.82
2023-02-24T19:42:40.006Z,-3.75
2023-02-24T19:45:10.767Z,-3.72
2023-02-24T19:47:42.441Z,-3.68
2023-02-24T19:50:12.908Z,-3.59
2023-02-24T19:52:42.502Z,-3.66
2023-02-24T19:55:19.422Z,-3.70
2023-02-24T19:57:48.576Z,-3.65
2023-02-24T20:00:20.430Z,-3.64
2023-02-24T20:02:49.272Z,-3.54
2023-02-24T20:05:18.438Z,-3.57
2023-02-24T20:07:47.961Z,-3.62
2023-02-24T20:10:20.047Z,-3.52
2023-02-24T20:12:49.250Z,-3.54
2023-02-24T20:15:18.417Z,-3.56
2023-02-24T20:17:49.764Z,-3.54
2023-02-24T20:20:19.712Z,-3.52
2023-02-24T20:22:48.798Z,-3.84
2023-02-24T20:25:20.120Z,-3.53
2023-02-24T20:27:54.690Z,-3.48
2023-02-24T20:30:24.062Z,-3.52
2023-02-24T20:32:53.502Z,-3.52
2023-02-24T20:35:25.646Z,-3.48
2023-02-24T20:37:54.842Z,-3.49
2023-02-24T20:40:25.880Z,-3.49
2023-02-24T20:42:55.695Z,-3.44
2023-02-24T20:45:24.735Z,-3.44
2023-02-24T20:50:34.094Z,-3.48
2023-02-24T20:53:03.843Z,-3.42
2023-02-24T20:55:37.997Z,-3.40
2023-02-24T20:58:12.372Z,-3.42
2023-02-24T21:00:41.661Z,-3.41
2023-02-24T21:03:11.935Z,-3.38
2023-02-24T21:05:41.521Z,-3.31
2023-02-24T21:08:11.710Z,-3.26
2023-02-24T21:10:45.668Z,-3.26
2023-02-24T21:13:16.077Z,-3.30
2023-02-24T21:15:53.470Z,-3.30
2023-02-24T21:18:29.634Z,-3.30
2023-02-24T21:20:58.780Z,-3.20
2023-02-24T21:23:28.625Z,-3.19
2023-02-24T21:25:59.651Z,-3.19
2023-02-24T21:28:29.025Z,-3.21
2023-02-24T21:30:58.562Z,-3.26
2023-02-24T21:33:27.731Z,-3.25
2023-02-24T21:36:02.849Z,-3.23
2023-02-24T21:38:33.702Z,-3.19
2023-02-24T21:41:07.100Z,-3.16
2023-02-24T21:43:37.404Z,-3.14
2023-02-24T21:46:08.692Z,-3.13
2023-02-24T21:48:38.498Z,-3.10
2023-02-24T21:51:10.608Z,-3.08
2023-02-24T21:53:43.095Z,-3.05
2023-02-24T21:56:18.386Z,-3.03
2023-02-24T21:58:54.925Z,-3.06
2023-02-24T22:01:26.718Z,-3.07
2023-02-24T22:04:01.314Z,-2.97
2023-02-24T22:06:32.918Z,-3.00
2023-02-24T22:11:41.618Z,-3.00
2023-02-24T22:14:11.526Z,-3.01
2023-02-24T22:16:41.433Z,-3.00
2023-02-24T22:19:11.847Z,-3.02
2023-02-24T22:21:42.087Z,-3.01
2023-02-24T22:24:14.909Z,-2.95
2023-02-24T22:26:46.714Z,-2.91
2023-02-24T22:29:21.017Z,-2.88
2023-02-24T22:31:50.279Z,-2.90
2023-02-24T22:34:19.669Z,-2.95
2023-02-24T22:36:48.905Z,-3.06
2023-02-24T22:39:18.310Z,-3.02
2023-02-24T22:41:53.117Z,-2.97
2023-02-24T22:47:07.700Z,-2.97
2023-02-24T22:49:36.780Z,-2.95
2023-02-24T22:52:05.930Z,-2.93
2023-02-24T22:54:36.980Z,-2.87
2023-02-24T22:57:08.175Z,-2.86
2023-02-24T22:59:37.418Z,-2.90
2023-02-24T23:02:12.431Z,-2.92
2023-02-24T23:04:41.684Z,-2.90
2023-02-24T23:07:11.160Z,-2.92
2023-02-24T23:09:52.318Z,-2.83
2023-02-24T23:12:24.095Z,-2.81
2023-02-24T23:14:53.294Z,-2.82
2023-02-24T23:17:23.640Z,-2.82
2023-02-24T23:19:53.714Z,-2.85
2023-02-24T23:22:22.837Z,-2.88
2023-02-24T23:24:52.529Z,-2.83
2023-02-24T23:27:23.585Z,-2.79
2023-02-24T23:29:52.811Z,-2.81
2023-02-24T23:32:21.941Z,-2.79
2023-02-24T23:34:53.635Z,-2.80
2023-02-24T23:37:22.868Z,-2.78
2023-02-24T23:39:52.177Z,-2.79
2023-02-24T23:42:23.488Z,-2.84
2023-02-24T23:44:52.772Z,-2.86
2023-02-24T23:47:22.984Z,-2.85
2023-02-24T23:49:57.248Z,-2.77
2023-02-24T23:52:27.403Z,-2.73
2023-02-24T23:54:56.602Z,-2.72
2023-02-24T23:57:30.111Z,-2.72
